Latest Weather Observations for Morawa Airport

IDW60801

Issued at 11:03 pm WST Sunday 20 August 2017 (issued every 30 minutes, with the page automatically refreshed every 10 minutes)

About weather observations | Map of weather stations | Latest weather observations for WA | Other Formats
Station Details ID: 008296 Name: MORAWA AIRPORT Lat: -29.20 Lon: 116.02 Height: 271.4 m
Data from the previous 72 hours. | See also: Recent months at Morawa Airport
Date/Time
WST
Temp
°C
App
Temp
°C
Dew
Point
°C
Rel
Hum
%
Delta-T
°C
Wind Press
QNH
hPa
Press
MSL
hPa
Rain since
9am
mm
Dir  Spd
km/h
Gust
km/h
Spd
kts
Gust
kts
20/11:00pm 9.4 7.1 5.9 79 1.6 ESE 7 11 4 6 1023.3 1023.2 0.0
20/10:30pm 8.7 6.3 5.1 78 1.6 SE 7 7 4 4 1023.5 1023.4 0.0
20/10:00pm 9.2 6.9 5.0 75 1.9 SSE 6 7 3 4 1023.5 1023.4 0.0
20/09:30pm 9.2 6.9 4.8 74 2.0 SSE 6 6 3 3 1023.6 1023.5 0.0
20/09:00pm 10.2 8.0 5.2 71 2.3 SE 6 7 3 4 1023.4 1023.3 0.0
20/08:30pm 10.6 8.2 5.2 69 2.5 SSE 7 9 4 5 1023.2 1023.1 0.0
20/08:00pm 10.9 8.4 4.8 66 2.8 SSE 7 9 4 5 1023.2 1023.1 0.0
20/07:30pm 12.1 8.9 5.0 62 3.3 SSE 11 13 6 7 1023.1 1023.0 0.0
20/07:00pm 12.7 9.5 4.9 59 3.6 SSE 11 13 6 7 1022.9 1022.8 0.0
20/06:30pm 13.4 10.5 4.6 55 4.1 SE 9 13 5 7 1022.9 1022.8 0.0
20/06:00pm 14.9 11.6 4.3 49 5.0 SSE 11 15 6 8 1022.9 1022.8 0.0
20/05:30pm 16.1 12.4 4.2 45 5.6 SSE 13 17 7 9 1022.8 1022.7 0.0
20/05:00pm 17.0 12.9 4.3 43 6.0 SSE 15 19 8 10 1022.6 1022.5 0.0
20/04:30pm 17.3 13.6 4.3 42 6.2 S 13 19 7 10 1022.5 1022.4 0.0
20/04:00pm 17.7 13.5 3.9 40 6.5 S 15 20 8 11 1022.5 1022.4 0.0
20/03:30pm 17.7 13.7 5.0 43 6.2 S 15 28 8 15 1022.6 1022.5 0.0
20/03:00pm 17.9 13.5 4.8 42 6.3 SSE 17 26 9 14 1022.7 1022.6 0.0
20/02:30pm 17.4 13.0 4.7 43 6.1 SSE 17 30 9 16 1022.9 1022.8 0.0
20/02:00pm 17.5 13.5 5.1 44 6.0 SSE 15 26 8 14 1023.1 1023.0 0.0
20/01:30pm 17.7 13.5 5.6 45 6.0 S 17 28 9 15 1023.4 1023.3 0.0
20/01:00pm 17.3 13.1 5.6 46 5.7 S 17 28 9 15 1023.7 1023.6 0.0
20/12:30pm 16.2 11.5 5.2 48 5.3 SSE 19 26 10 14 1024.3 1024.2 0.0
20/12:00pm 15.5 11.2 5.4 51 4.8 S 17 24 9 13 1024.9 1024.8 0.0
20/11:30am 15.8 10.9 6.8 55 4.5 SSE 22 30 12 16 1025.4 1025.3 0.0
20/11:00am 15.2 10.5 6.0 54 4.5 S 20 30 11 16 1025.8 1025.7 0.0
20/10:30am 14.6 10.1 6.9 60 3.8 SSE 20 26 11 14 1025.9 1025.8 0.0
20/10:00am 13.7 9.4 7.2 65 3.2 SSE 19 26 10 14 1026.1 1026.0 0.0
20/09:30am 12.8 8.7 7.7 71 2.5 SSE 19 24 10 13 1026.0 1025.9 0.0
20/09:00am 11.9 8.7 8.4 79 1.7 SSE 15 19 8 10 1025.9 1025.8 0.2
20/08:30am 11.4 8.6 8.6 83 1.4 SSE 13 17 7 9 1025.9 1025.8 0.2
20/08:00am 10.9 9.2 9.7 92 0.6 S 9 13 5 7 1025.6 1025.5 0.2
20/07:30am 10.1 8.8 10.1 100 0.0 S 7 9 4 5 1025.1 1024.9 0.2
20/07:00am 9.5 8.1 9.5 100 0.0 S 7 9 4 5 1024.7 1024.6 0.2
20/06:30am 10.1 8.4 10.0 99 0.1 S 9 13 5 7 1024.3 1024.2 0.2
20/06:00am 10.5 9.4 10.5 100 0.0 S 7 11 4 6 1024.0 1023.9 0.2
20/05:30am 10.6 8.3 10.4 99 0.1 S 13 19 7 10 1024.0 1023.9 0.2
20/05:00am 10.9 8.0 10.9 100 0.0 S 17 24 9 13 1023.7 1023.6 0.2
20/04:30am 10.7 9.2 10.7 100 0.0 SSW 9 13 5 7 1023.5 1023.4 0.2
20/04:00am 10.7 9.2 10.7 100 0.0 SW 9 13 5 7 1023.3 1023.2 0.2
20/03:30am 10.6 8.3 10.6 100 0.0 SSW 13 17 7 9 1023.2 1023.1 0.2
20/03:00am 10.8 8.2 10.8 100 0.0 SSW 15 20 8 11 1023.1 1023.0 0.2
20/02:30am 10.9 7.6 10.9 100 0.0 SW 19 30 10 16 1023.0 1022.9 0.2
20/02:00am 11.0 8.9 11.0 100 0.0 SW 13 20 7 11 1023.0 1022.9 0.2
20/01:30am 10.8 8.2 10.8 100 0.0 SW 15 20 8 11 1023.0 1022.9 0.2
20/01:00am 10.7 8.9 10.7 100 0.0 SW 11 17 6 9 1022.9 1022.8 0.2
20/12:30am 10.6 8.7 10.6 100 0.0 WSW 11 19 6 10 1022.9 1022.8 0.2
20/12:00am 10.1 8.1 10.1 100 0.0 WSW 11 15 6 8 1023.0 1022.9 0.2
 
Date/Time
WST
Temp
°C
App
Temp
°C
Dew
Point
°C
Rel
Hum
%
Delta-T
°C
Wind Press
QNH
hPa
Press
MSL
hPa
Rain since
9am
mm
Dir  Spd
km/h
Gust
km/h
Spd
kts
Gust
kts
19/11:30pm 9.9 7.8 9.9 100 0.0 WSW 11 15 6 8 1023.0 1022.9 0.2
19/11:00pm 10.0 7.9 9.9 99 0.1 WSW 11 17 6 9 1023.1 1023.0 0.0
19/10:30pm 10.2 8.1 9.6 96 0.3 WSW 11 15 6 8 1023.1 1023.0 0.0
19/10:00pm 10.2 7.7 8.3 88 0.9 W 11 17 6 9 1023.0 1022.9 0.0
19/09:30pm 10.1 7.5 7.7 85 1.2 W 11 15 6 8 1022.8 1022.7 0.0
19/09:00pm 10.0 7.6 7.1 82 1.4 W 9 13 5 7 1022.5 1022.4 0.0
19/08:30pm 10.2 7.7 6.5 78 1.8 W 9 11 5 6 1022.4 1022.3 0.0
19/08:00pm 10.9 8.3 6.1 72 2.3 WSW 9 13 5 7 1022.1 1021.9 0.0
19/07:30pm 11.5 8.8 5.6 67 2.8 WSW 9 13 5 7 1021.7 1021.5 0.0
19/07:00pm 12.2 9.0 5.1 62 3.3 WSW 11 15 6 8 1021.4 1021.2 0.0
19/06:30pm 12.8 9.1 4.3 56 3.9 WSW 13 20 7 11 1020.7 1020.6 0.0
19/06:00pm 13.4 8.5 4.0 53 4.3 SW 19 28 10 15 1020.3 1020.2 0.0
19/05:30pm 14.4 9.1 3.2 47 5.1 SW 20 32 11 17 1019.9 1019.8 0.0
19/05:00pm 15.3 10.1 3.8 46 5.3 WSW 20 33 11 18 1019.5 1019.4 0.0
19/04:30pm 15.7 10.3 4.7 48 5.2 SSW 22 33 12 18 1019.3 1019.2 0.0
19/04:00pm 15.4 9.6 4.2 47 5.3 SW 24 35 13 19 1019.0 1018.9 0.0
19/03:30pm 17.1 11.7 4.4 43 6.1 WSW 22 32 12 17 1018.7 1018.5 0.0
19/03:00pm 16.1 10.6 4.2 45 5.6 SW 22 35 12 19 1018.6 1018.4 0.0
19/02:30pm 16.4 10.3 2.8 40 6.3 SW 24 32 13 17 1018.5 1018.3 0.0
19/02:00pm 16.3 10.6 5.0 47 5.4 WSW 24 35 13 19 1018.5 1018.3 0.0
19/01:30pm 15.8 10.5 4.8 48 5.3 WSW 22 32 12 17 1018.8 1018.6 0.0
19/01:00pm 15.9 11.1 5.5 50 5.0 WSW 20 32 11 17 1018.8 1018.6 0.0
19/12:30pm 15.8 11.2 5.7 51 4.9 WSW 19 32 10 17 1018.9 1018.7 0.0
19/12:00pm 14.9 9.2 4.9 51 4.7 W 24 37 13 20 1019.2 1019.1 0.0
19/11:30am 14.9 10.4 6.0 55 4.3 WSW 19 32 10 17 1019.2 1019.1 0.0
19/11:00am 14.8 10.4 6.6 58 4.0 WSW 19 26 10 14 1019.4 1019.3 0.0
19/10:30am 15.0 10.6 6.6 57 4.1 WSW 19 28 10 15 1019.4 1019.3 0.0
19/10:00am 14.3 10.6 8.0 66 3.2 W 17 24 9 13 1019.3 1019.2 0.0
19/09:30am 13.3 9.5 9.0 75 2.2 W 19 26 10 14 1019.5 1019.4 0.0
19/09:00am 13.2 9.9 9.5 78 1.9 WNW 17 22 9 12 1019.2 1019.1 0.0
19/08:30am 11.8 9.4 9.9 88 1.0 NW 13 20 7 11 1019.1 1019.0 0.0
19/08:00am 10.6 8.7 10.6 100 0.0 NW 11 17 6 9 1018.7 1018.5 0.0
19/07:30am 9.1 7.6 9.1 100 0.0 NNW 7 11 4 6 1018.5 1018.3 0.0
19/07:00am 8.3 6.8 8.3 100 0.0 NNW 6 9 3 5 1018.1 1017.9 0.0
19/06:30am 8.3 6.6 8.3 100 0.0 NNW 7 9 4 5 1017.7 1017.5 0.0
19/06:00am 8.5 7.0 8.5 100 0.0 NNW 6 7 3 4 1017.4 1017.2 0.0
19/05:30am 8.3 6.8 8.3 100 0.0 N 6 7 3 4 1017.1 1017.0 0.0
19/05:00am 8.8 7.4 8.8 100 0.0 NW 6 6 3 3 1016.9 1016.8 0.0
19/04:30am 9.0 8.8 9.0 100 0.0 CALM 0 0 0 0 1016.8 1016.7 0.0
19/04:00am 8.7 8.4 8.7 100 0.0 CALM 0 0 0 0 1016.6 1016.5 0.0
19/03:30am 9.7 9.7 9.7 100 0.0 CALM 0 0 0 0 1016.4 1016.3 0.0
19/03:00am 10.3 10.1 10.3 100 0.0 W 2 7 1 4 1016.6 1016.5 0.0
19/02:30am 10.2 9.0 10.2 100 0.0 WSW 7 9 4 5 1016.9 1016.8 0.0
19/02:00am 10.3 7.6 10.3 100 0.0 SW 15 22 8 12 1017.1 1017.0 0.0
19/01:30am 10.4 8.1 10.4 100 0.0 SW 13 20 7 11 1017.2 1017.1 0.0
19/01:00am 9.7 7.6 9.7 100 0.0 SW 11 15 6 8 1017.1 1017.0 0.0
19/12:30am 9.7 6.8 9.7 100 0.0 SW 15 20 8 11 1017.0 1016.9 0.0
19/12:00am 10.3 8.0 9.1 92 0.6 WSW 11 19 6 10 1016.9 1016.8 0.0
 
Date/Time
WST
Temp
°C
App
Temp
°C
Dew
Point
°C
Rel
Hum
%
Delta-T
°C
Wind Press
QNH
hPa
Press
MSL
hPa
Rain since
9am
mm
Dir  Spd
km/h
Gust
km/h
Spd
kts
Gust
kts
18/11:30pm 10.9 8.2 7.2 78 1.8 W 11 15 6 8 1016.7 1016.6 0.0
18/11:00pm 11.5 9.1 7.0 74 2.2 W 9 13 5 7 1016.7 1016.6 0.0
18/10:30pm 11.2 9.1 6.5 73 2.2 W 7 9 4 5 1016.6 1016.5 0.0
18/10:00pm 11.9 9.3 6.2 68 2.7 W 9 13 5 7 1016.7 1016.6 0.0
18/09:30pm 12.4 9.8 6.2 66 3.0 W 9 11 5 6 1016.7 1016.6 0.0
18/09:00pm 13.0 10.4 6.1 63 3.3 WSW 9 13 5 7 1016.5 1016.4 0.0
18/08:30pm 13.3 11.0 5.9 61 3.6 W 7 11 4 6 1016.5 1016.4 0.0
18/08:00pm 13.9 10.5 5.8 58 3.9 WSW 13 19 7 10 1016.4 1016.3 0.0
18/07:30pm 14.4 10.6 5.7 56 4.2 W 15 22 8 12 1016.1 1016.0 0.0
18/07:00pm 15.3 11.8 5.5 52 4.7 WSW 13 19 7 10 1016.1 1016.0 0.0
18/06:30pm 16.8 13.9 4.8 45 5.8 WSW 9 15 5 8 1015.9 1015.8 0.0
18/06:00pm 17.9 14.6 4.8 42 6.4 W 11 17 6 9 1015.6 1015.4 0.0
18/05:30pm 18.7 14.3 4.5 39 6.9 W 17 22 9 12 1015.1 1014.9 0.0
18/05:00pm 19.4 15.2 4.0 36 7.4 W 15 20 8 11 1014.8 1014.6 0.0
18/04:30pm 20.7 17.0 4.3 34 8.0 WNW 13 33 7 18 1014.6 1014.4 0.0
18/04:00pm 19.5 16.2 4.4 37 7.4 W 11 19 6 10 1014.8 1014.6 0.0
18/03:30pm 20.9 16.3 3.6 32 8.4 W 17 24 9 13 1014.7 1014.5 0.0
18/03:00pm 20.6 16.4 3.8 33 8.1 W 15 24 8 13 1014.6 1014.4 0.0
18/02:30pm 20.5 16.3 3.7 33 8.1 WNW 15 24 8 13 1014.5 1014.3 0.0
18/02:00pm 20.6 16.4 3.8 33 8.1 WSW 15 20 8 11 1014.6 1014.4 0.0
18/01:30pm 20.5 17.0 3.7 33 8.1 WNW 11 17 6 9 1014.6 1014.4 0.0
18/01:00pm 20.1 17.3 3.3 33 8.0 WNW 7 17 4 9 1015.2 1015.0 0.0
18/12:30pm 18.8 16.5 2.6 34 7.6 WSW 4 9 2 5 1015.8 1015.6 0.0
18/12:00pm 19.2 16.5 2.6 33 7.8 WNW 6 13 3 7 1016.3 1016.2 0.0
18/11:30am 17.7 15.3 2.1 35 7.2 SSW 4 7 2 4 1016.7 1016.6 0.0
18/11:00am 17.1 15.1 2.3 37 6.8 ENE 2 6 1 3 1017.1 1017.0 0.0
18/10:30am 16.2 13.5 3.6 43 5.9 NE 7 11 4 6 1017.5 1017.3 0.0
18/10:00am 14.2 11.1 3.7 49 4.8 NE 9 13 5 7 1017.7 1017.5 0.0
18/09:30am 13.3 11.2 3.7 52 4.4 ENE 4 7 2 4 1018.0 1017.8 0.0
18/09:00am 11.7 10.1 2.2 52 4.1 CALM 0 4 0 2 1018.0 1017.8 0.0
18/08:30am 8.4 7.0 3.8 73 2.0 CALM 0 0 0 0 1018.3 1018.1 0.0
18/08:00am 6.7 5.7 5.8 94 0.4 CALM 0 0 0 0 1018.3 1018.1 0.0
18/07:30am 4.2 2.9 4.2 100 0.0 CALM 0 0 0 0 1018.1 1017.9 0.0
18/07:00am 2.4 0.8 2.4 100 0.0 CALM 0 0 0 0 1018.1 1017.9 0.0
18/06:30am 2.3 0.7 2.3 100 0.0 CALM 0 0 0 0 1018.0 1017.8 0.0
18/06:00am 2.4 0.8 2.4 100 0.0 CALM 0 0 0 0 1018.0 1017.8 0.0
18/05:30am 2.8 1.3 2.8 100 0.0 CALM 0 0 0 0 1017.8 1017.6 0.0
18/05:00am 3.0 1.5 3.0 100 0.0 CALM 0 0 0 0 1017.6 1017.4 0.0
18/04:30am 3.3 1.9 3.3 100 0.0 CALM 0 0 0 0 1017.6 1017.4 0.0
18/04:00am 3.4 2.0 3.4 100 0.0 CALM 0 0 0 0 1017.5 1017.3 0.0
18/03:30am 3.2 1.7 3.2 100 0.0 CALM 0 0 0 0 1017.8 1017.6 0.0
18/03:00am 3.5 2.1 3.5 100 0.0 CALM 0 0 0 0 1018.0 1017.8 0.0
18/02:30am 3.9 1.8 3.8 99 0.0 E 4 4 2 2 1018.1 1017.9 0.0
18/02:00am 4.0 1.9 3.9 99 0.0 E 4 4 2 2 1018.1 1017.9 0.0
18/01:30am 4.6 2.6 4.5 99 0.0 E 4 6 2 3 1018.4 1018.2 0.0
18/01:00am 4.4 3.1 4.0 97 0.2 CALM 0 4 0 2 1018.6 1018.4 0.0
18/12:30am 4.4 3.1 4.0 97 0.2 CALM 0 0 0 0 1018.8 1018.6 0.0
18/12:00am 4.7 3.3 3.8 94 0.4 CALM 0 0 0 0 1018.9 1018.7 0.0
 
Date/Time
WST
Temp
°C
App
Temp
°C
Dew
Point
°C
Rel
Hum
%
Delta-T
°C
Wind Press
QNH
hPa
Press
MSL
hPa
Rain since
9am
mm
Dir  Spd
km/h
Gust
km/h
Spd
kts
Gust
kts
17/11:30pm 5.1 3.8 4.1 93 0.4 CALM 0 0 0 0 1018.9 1018.7 0.0

Other Formats:

Comma delimited format used in spreadsheet applications
http://www.bom.gov.au/fwo/IDW60801/IDW60801.94417.axf

JavaScript Object Notation format (JSON) in row-major order
http://www.bom.gov.au/fwo/IDW60801/IDW60801.94417.json